createdAt,value
2023-02-25T00:00:22.828Z,3.41
2023-02-25T00:02:52.559Z,3.41
2023-02-25T00:05:21.695Z,3.50
2023-02-25T00:07:50.851Z,3.57
2023-02-25T00:10:20.085Z,3.54
2023-02-25T00:12:50.802Z,3.55
2023-02-25T00:15:20.192Z,3.60
2023-02-25T00:17:49.874Z,3.66
2023-02-25T00:20:20.719Z,3.62
2023-02-25T00:22:49.884Z,3.62
2023-02-25T00:25:19.086Z,3.60
2023-02-25T00:27:49.735Z,3.56
2023-02-25T00:30:18.984Z,3.67
2023-02-25T00:32:48.280Z,3.62
2023-02-25T00:35:17.609Z,3.67
2023-02-25T00:37:46.731Z,3.66
2023-02-25T00:40:15.849Z,3.64
2023-02-25T00:42:44.962Z,3.65
2023-02-25T00:45:15.476Z,3.63
2023-02-25T00:47:44.920Z,3.63
2023-02-25T00:50:14.284Z,3.54
2023-02-25T00:52:43.375Z,3.71
2023-02-25T00:55:12.543Z,3.49
2023-02-25T00:57:43.128Z,3.54
2023-02-25T01:00:16.872Z,3.55
2023-02-25T01:02:46.421Z,3.56
2023-02-25T01:05:16.544Z,3.58
2023-02-25T01:07:45.766Z,3.51
2023-02-25T01:10:14.852Z,3.51
2023-02-25T01:12:43.918Z,3.55
2023-02-25T01:15:15.004Z,3.50
2023-02-25T01:17:44.072Z,3.45
2023-02-25T01:20:13.768Z,3.42
2023-02-25T01:22:42.830Z,3.40
2023-02-25T01:25:17.543Z,3.45
2023-02-25T01:27:46.685Z,3.44
2023-02-25T01:30:18.447Z,3.32
2023-02-25T01:32:47.565Z,3.38
2023-02-25T01:35:16.761Z,3.38
2023-02-25T01:37:47.490Z,3.38
2023-02-25T01:40:17.484Z,3.39
2023-02-25T01:42:47.649Z,3.39
2023-02-25T01:45:29.292Z,3.50
2023-02-25T01:48:09.961Z,3.40
2023-02-25T01:50:44.782Z,3.37
2023-02-25T01:53:16.279Z,3.30
2023-02-25T01:55:45.818Z,3.29
2023-02-25T01:58:15.465Z,3.21
2023-02-25T02:00:46.133Z,3.23
2023-02-25T02:03:16.902Z,3.33
2023-02-25T02:06:01.117Z,3.24
2023-02-25T02:08:31.748Z,3.34
2023-02-25T02:11:01.409Z,3.22
2023-02-25T02:13:34.986Z,3.31
2023-02-25T02:16:22.730Z,3.36
2023-02-25T02:18:58.048Z,3.33
2023-02-25T02:21:51.144Z,3.30
2023-02-25T02:25:00.540Z,3.23
2023-02-25T02:27:40.341Z,3.31
2023-02-25T02:30:35.314Z,3.33
2023-02-25T02:33:12.718Z,3.36
2023-02-25T02:35:50.301Z,3.36
2023-02-25T02:38:28.728Z,3.25
2023-02-25T02:41:06.007Z,3.23
2023-02-25T02:43:42.093Z,3.21
2023-02-25T02:46:20.230Z,3.17
2023-02-25T02:48:57.371Z,3.16
2023-02-25T02:51:31.482Z,3.17
2023-02-25T02:54:05.904Z,3.17
2023-02-25T02:56:40.124Z,3.15
2023-02-25T02:59:14.602Z,3.11
2023-02-25T03:01:51.369Z,3.13
2023-02-25T03:04:26.822Z,3.09
2023-02-25T03:07:02.507Z,3.06
2023-02-25T03:09:39.181Z,3.08
2023-02-25T03:12:09.959Z,3.06
2023-02-25T03:14:40.110Z,3.09
2023-02-25T03:17:12.591Z,3.02
2023-02-25T03:19:46.759Z,2.97
2023-02-25T03:22:19.469Z,3.02
2023-02-25T03:24:55.133Z,2.93
2023-02-25T03:27:28.396Z,3.00
2023-02-25T03:30:07.072Z,3.01
2023-02-25T03:32:40.336Z,3.02
2023-02-25T03:35:13.891Z,2.93
2023-02-25T03:37:47.386Z,2.96
2023-02-25T03:40:17.692Z,2.89
2023-02-25T03:42:52.069Z,2.97
2023-02-25T03:45:22.674Z,2.93
2023-02-25T03:47:52.561Z,2.84
2023-02-25T03:50:28.805Z,2.85
2023-02-25T03:53:02.685Z,2.90
2023-02-25T03:55:50.693Z,2.88
2023-02-25T03:58:20.170Z,2.81
2023-02-25T04:00:55.772Z,2.83
2023-02-25T04:03:27.074Z,2.80
2023-02-25T04:05:57.664Z,2.85
2023-02-25T04:08:27.495Z,2.78
2023-02-25T04:10:56.585Z,2.72
2023-02-25T04:13:25.656Z,2.68
2023-02-25T04:15:55.065Z,2.68
2023-02-25T04:18:26.556Z,2.63
2023-02-25T04:20:57.170Z,2.54
2023-02-25T04:23:26.344Z,2.62
2023-02-25T04:25:55.399Z,2.60
2023-02-25T04:28:24.483Z,2.66
2023-02-25T04:30:53.662Z,2.56
2023-02-25T04:33:22.802Z,2.55
2023-02-25T04:35:52.690Z,2.46
2023-02-25T04:38:23.123Z,2.40
2023-02-25T04:40:53.039Z,2.44
2023-02-25T04:43:22.137Z,2.43
2023-02-25T04:45:51.150Z,2.45
2023-02-25T04:48:24.152Z,2.30
2023-02-25T04:50:53.406Z,2.34
2023-02-25T04:53:24.007Z,2.45
2023-02-25T04:55:53.170Z,2.40
2023-02-25T04:58:22.366Z,2.42
2023-02-25T05:00:52.342Z,2.34
2023-02-25T05:03:21.393Z,2.49
2023-02-25T05:05:50.561Z,2.47
2023-02-25T05:08:19.650Z,2.35
2023-02-25T05:10:50.183Z,2.42
2023-02-25T05:13:20.019Z,2.43
2023-02-25T05:15:49.212Z,2.48
2023-02-25T05:18:18.484Z,2.51
2023-02-25T05:20:48.365Z,2.45
2023-02-25T05:23:17.423Z,2.52
2023-02-25T05:25:46.451Z,2.42
2023-02-25T05:28:16.874Z,2.56
2023-02-25T05:30:45.991Z,2.43
2023-02-25T05:33:15.060Z,2.52
2023-02-25T05:35:44.817Z,2.51
2023-02-25T05:38:13.886Z,2.52
2023-02-25T05:40:42.925Z,2.46
2023-02-25T05:43:11.964Z,2.50
2023-02-25T05:45:42.473Z,2.55
2023-02-25T05:48:11.586Z,2.53
2023-02-25T05:50:41.276Z,2.51
2023-02-25T05:53:10.819Z,2.54
2023-02-25T05:55:43.040Z,2.46
2023-02-25T05:58:12.731Z,2.55
2023-02-25T06:00:43.695Z,2.49
2023-02-25T06:03:12.821Z,2.50
2023-02-25T06:05:42.729Z,2.50
2023-02-25T06:08:12.407Z,2.45
2023-02-25T06:10:42.059Z,2.57
2023-02-25T06:13:12.770Z,2.48
2023-02-25T06:15:44.199Z,2.52
2023-02-25T06:18:13.399Z,2.51
2023-02-25T06:20:42.464Z,2.54
2023-02-25T06:23:11.637Z,2.52
2023-02-25T06:25:40.736Z,2.52
2023-02-25T06:28:10.947Z,2.58
2023-02-25T06:30:42.250Z,2.62
2023-02-25T06:33:12.725Z,2.52
2023-02-25T06:35:42.469Z,2.58
2023-02-25T06:38:11.579Z,2.50
2023-02-25T06:40:40.702Z,2.36
2023-02-25T06:43:09.742Z,2.14
2023-02-25T06:45:42.788Z,2.06
2023-02-25T06:48:13.317Z,2.03
2023-02-25T06:50:43.092Z,1.79
2023-02-25T06:53:12.158Z,1.89
2023-02-25T06:55:41.871Z,2.02
2023-02-25T06:58:10.945Z,1.81
2023-02-25T07:00:43.158Z,1.64
2023-02-25T07:03:14.747Z,1.20
2023-02-25T07:05:44.159Z,1.20
2023-02-25T07:08:13.454Z,1.17
2023-02-25T07:10:42.519Z,1.35
2023-02-25T07:13:12.547Z,1.39
2023-02-25T07:15:41.655Z,1.38
2023-02-25T07:18:10.783Z,1.54
2023-02-25T07:20:41.237Z,1.62
2023-02-25T07:23:10.614Z,1.72
2023-02-25T07:25:41.250Z,1.67
2023-02-25T07:28:11.121Z,1.84
2023-02-25T07:30:40.787Z,1.83
2023-02-25T07:33:10.132Z,1.81
2023-02-25T07:35:40.910Z,1.79
2023-02-25T07:38:12.790Z,1.88
2023-02-25T07:40:42.794Z,1.96
2023-02-25T07:43:11.991Z,1.95
2023-02-25T07:45:42.032Z,2.01
2023-02-25T07:48:11.435Z,2.04
2023-02-25T07:50:42.379Z,2.11
2023-02-25T07:53:11.743Z,2.23
2023-02-25T07:55:43.709Z,2.33
2023-02-25T07:58:13.822Z,2.21
2023-02-25T08:00:45.717Z,2.21
2023-02-25T08:03:15.126Z,2.17
2023-02-25T08:05:45.600Z,2.08
2023-02-25T08:08:14.776Z,2.32
2023-02-25T08:10:44.113Z,2.27
2023-02-25T08:13:13.300Z,2.21
2023-02-25T08:15:43.065Z,2.09
2023-02-25T08:18:12.596Z,2.28
2023-02-25T08:20:48.257Z,2.29
2023-02-25T08:23:17.321Z,2.45
2023-02-25T08:25:46.455Z,2.25
2023-02-25T08:28:15.565Z,2.23
2023-02-25T08:30:44.892Z,2.21
2023-02-25T08:33:14.628Z,2.17
2023-02-25T08:35:43.885Z,2.05
2023-02-25T08:38:14.461Z,1.94
2023-02-25T08:40:43.753Z,1.85
2023-02-25T08:43:12.863Z,1.99
2023-02-25T08:45:43.089Z,1.96
2023-02-25T08:48:12.184Z,2.11
2023-02-25T08:50:41.324Z,2.13
2023-02-25T08:53:11.982Z,2.22
2023-02-25T08:55:42.830Z,2.28
2023-02-25T08:58:12.105Z,2.23
2023-02-25T09:00:41.709Z,2.35
2023-02-25T09:03:10.905Z,2.27
2023-02-25T09:05:40.020Z,2.17
2023-02-25T09:08:09.101Z,2.21
2023-02-25T09:10:49.817Z,2.07
2023-02-25T09:13:21.269Z,2.20
2023-02-25T09:15:57.609Z,2.18
2023-02-25T09:18:27.124Z,2.34
2023-02-25T09:20:56.245Z,2.29
2023-02-25T09:23:25.307Z,2.42
2023-02-25T09:25:54.938Z,2.50
2023-02-25T09:28:25.347Z,2.47
2023-02-25T09:30:54.405Z,2.46
2023-02-25T09:33:23.534Z,2.32
2023-02-25T09:35:52.670Z,2.50
2023-02-25T09:38:21.995Z,2.46
2023-02-25T09:40:51.503Z,2.41
2023-02-25T09:43:28.104Z,2.55
2023-02-25T09:46:06.112Z,2.63
2023-02-25T09:48:39.210Z,2.85
2023-02-25T09:51:19.916Z,2.91
2023-02-25T09:53:54.023Z,2.94
2023-02-25T09:56:27.638Z,3.45
2023-02-25T09:58:59.481Z,3.98
2023-02-25T10:01:36.323Z,4.11
2023-02-25T10:04:15.457Z,3.54
2023-02-25T10:06:47.695Z,3.24
2023-02-25T10:09:26.873Z,2.98
2023-02-25T10:12:07.207Z,3.05
2023-02-25T10:15:06.312Z,2.81
2023-02-25T10:17:45.727Z,2.70
2023-02-25T10:20:40.294Z,2.84
2023-02-25T10:23:23.612Z,2.73
2023-02-25T10:25:59.594Z,2.79
2023-02-25T10:28:31.212Z,2.61
2023-02-25T10:31:07.110Z,2.48
2023-02-25T10:33:40.216Z,2.48
2023-02-25T10:36:14.684Z,2.51
2023-02-25T10:38:46.384Z,2.61
2023-02-25T10:41:15.743Z,3.01
2023-02-25T10:43:46.229Z,2.86
2023-02-25T10:46:22.559Z,2.85
2023-02-25T10:48:57.435Z,2.82
2023-02-25T10:51:28.332Z,2.81
2023-02-25T10:54:07.258Z,3.00
2023-02-25T10:56:43.526Z,3.05
2023-02-25T10:59:30.213Z,3.31
2023-02-25T11:02:03.087Z,3.27
2023-02-25T11:04:37.906Z,3.46
2023-02-25T11:07:29.563Z,3.51
2023-02-25T11:10:14.566Z,3.73
2023-02-25T11:12:46.003Z,3.27
2023-02-25T11:15:44.436Z,3.50
2023-02-25T11:18:22.897Z,3.44
2023-02-25T11:20:55.421Z,3.29
2023-02-25T11:23:35.036Z,3.35
2023-02-25T11:26:06.675Z,3.90
2023-02-25T11:28:40.170Z,3.64
2023-02-25T11:31:14.029Z,3.92
2023-02-25T11:33:51.700Z,4.26
2023-02-25T11:36:25.953Z,3.87
2023-02-25T11:39:16.483Z,3.98
2023-02-25T11:41:46.433Z,3.75
2023-02-25T11:44:27.945Z,3.77
2023-02-25T11:47:04.224Z,3.71
2023-02-25T11:49:49.788Z,3.50
2023-02-25T11:52:26.060Z,4.53
2023-02-25T11:55:08.884Z,5.14
2023-02-25T11:57:46.471Z,5.03
2023-02-25T12:00:25.517Z,4.98
2023-02-25T12:03:11.349Z,4.35
2023-02-25T12:06:10.444Z,3.63
2023-02-25T12:09:11.119Z,3.94
2023-02-25T12:12:15.151Z,3.63
2023-02-25T12:15:23.960Z,3.74
2023-02-25T12:18:34.645Z,4.13
2023-02-25T12:21:49.792Z,4.65
2023-02-25T12:24:37.400Z,4.16
2023-02-25T12:27:44.285Z,5.17
2023-02-25T12:30:42.714Z,4.95
2023-02-25T12:33:32.986Z,5.20
2023-02-25T12:36:16.525Z,5.79
2023-02-25T12:39:15.173Z,4.75
2023-02-25T12:41:54.744Z,4.66
2023-02-25T12:44:52.000Z,4.32
2023-02-25T12:47:32.239Z,4.62
2023-02-25T12:50:25.094Z,4.54
2023-02-25T12:53:24.858Z,4.35
2023-02-25T12:56:05.503Z,4.27
2023-02-25T12:58:57.705Z,5.15
2023-02-25T13:01:39.008Z,5.33
2023-02-25T13:04:35.526Z,5.40
2023-02-25T13:07:34.356Z,4.87
2023-02-25T13:10:19.752Z,6.14
2023-02-25T13:13:04.428Z,4.81
2023-02-25T13:15:46.281Z,5.22
2023-02-25T13:18:26.424Z,4.69
2023-02-25T13:21:08.946Z,5.37
2023-02-25T13:24:18.897Z,5.85
2023-02-25T13:27:22.289Z,5.04
2023-02-25T13:30:24.526Z,4.94
2023-02-25T13:33:06.740Z,5.10
2023-02-25T13:35:45.950Z,6.32
2023-02-25T13:38:41.707Z,5.94
2023-02-25T13:41:39.166Z,5.60
2023-02-25T13:44:28.964Z,4.64
2023-02-25T13:47:32.608Z,4.60
2023-02-25T13:50:40.513Z,4.33
2023-02-25T13:53:35.021Z,5.01
2023-02-25T13:56:38.237Z,5.41
2023-02-25T13:59:23.642Z,5.77
2023-02-25T14:02:15.498Z,5.51
2023-02-25T14:05:04.948Z,5.36
2023-02-25T14:08:22.041Z,4.91
2023-02-25T14:11:01.224Z,4.46
2023-02-25T14:14:02.722Z,4.19
2023-02-25T14:16:43.338Z,4.26
2023-02-25T14:19:31.687Z,5.54
2023-02-25T14:22:35.902Z,6.51
2023-02-25T14:25:21.415Z,5.45
2023-02-25T14:28:03.177Z,4.33
2023-02-25T14:30:44.471Z,4.14
2023-02-25T14:33:32.968Z,4.37
2023-02-25T14:36:16.522Z,4.31
2023-02-25T14:39:19.636Z,4.36
2023-02-25T14:42:02.567Z,3.95
2023-02-25T14:44:40.994Z,3.90
2023-02-25T14:47:15.523Z,4.10
2023-02-25T14:49:59.703Z,4.35
2023-02-25T14:52:45.200Z,4.15
2023-02-25T14:55:30.351Z,4.31
2023-02-25T14:58:48.277Z,4.47
2023-02-25T15:01:45.213Z,4.18
2023-02-25T15:04:47.411Z,4.00
2023-02-25T15:07:26.899Z,3.91
2023-02-25T15:10:28.192Z,3.98
2023-02-25T15:13:20.072Z,3.76
2023-02-25T15:16:03.789Z,3.66
2023-02-25T15:19:01.404Z,3.58
2023-02-25T15:21:39.351Z,3.48
2023-02-25T15:24:32.495Z,3.06
2023-02-25T15:27:02.012Z,3.30
2023-02-25T15:29:56.750Z,3.28
2023-02-25T15:32:29.932Z,3.37
2023-02-25T15:35:02.363Z,3.29
2023-02-25T15:37:36.088Z,3.23
2023-02-25T15:40:46.262Z,3.32
2023-02-25T15:43:45.165Z,3.40
2023-02-25T15:46:48.049Z,3.57
2023-02-25T15:49:29.046Z,3.51
2023-02-25T15:52:03.981Z,2.55
2023-02-25T15:54:53.020Z,2.52
2023-02-25T15:57:37.919Z,2.37
2023-02-25T16:00:51.975Z,2.41
2023-02-25T16:03:42.730Z,2.40
2023-02-25T16:06:19.893Z,2.51
2023-02-25T16:08:54.656Z,2.52
2023-02-25T16:11:34.847Z,2.46
2023-02-25T16:14:08.044Z,2.48
2023-02-25T16:16:41.609Z,2.49
2023-02-25T16:19:17.772Z,2.54
2023-02-25T16:21:50.235Z,2.53
2023-02-25T16:24:20.974Z,2.40
2023-02-25T16:26:58.752Z,2.54
2023-02-25T16:29:40.926Z,2.36
2023-02-25T16:32:18.694Z,2.32
2023-02-25T16:34:53.508Z,2.33
2023-02-25T16:37:30.379Z,2.36
2023-02-25T16:40:01.764Z,2.29
2023-02-25T16:42:35.741Z,2.21
2023-02-25T16:45:06.929Z,2.15
2023-02-25T16:47:39.935Z,2.00
2023-02-25T16:50:16.171Z,2.04
2023-02-25T16:52:50.445Z,1.94
2023-02-25T16:55:23.892Z,2.02
2023-02-25T16:58:07.788Z,1.96
2023-02-25T17:00:37.426Z,2.05
2023-02-25T17:03:12.683Z,2.04
2023-02-25T17:05:41.880Z,2.02
2023-02-25T17:08:17.323Z,2.12
2023-02-25T17:10:51.806Z,2.14
2023-02-25T17:13:25.509Z,2.05
2023-02-25T17:15:55.274Z,2.01
2023-02-25T17:18:30.943Z,1.99
2023-02-25T17:21:05.718Z,1.93
2023-02-25T17:23:40.349Z,1.88
2023-02-25T17:26:15.127Z,1.87
2023-02-25T17:28:47.238Z,1.78
2023-02-25T17:31:19.321Z,1.84
2023-02-25T17:33:50.961Z,1.90
2023-02-25T17:36:23.631Z,1.85
2023-02-25T17:38:57.544Z,1.87
2023-02-25T17:41:28.666Z,1.92
2023-02-25T17:43:58.110Z,1.89
2023-02-25T17:46:36.101Z,1.97
2023-02-25T17:49:18.621Z,2.03
2023-02-25T17:51:52.425Z,2.09
2023-02-25T17:54:24.263Z,2.00
2023-02-25T17:57:03.356Z,1.87
2023-02-25T17:59:39.502Z,1.86
2023-02-25T18:02:30.919Z,1.78
2023-02-25T18:05:23.447Z,1.65
2023-02-25T18:08:22.588Z,1.60
2023-02-25T18:10:58.132Z,1.52
2023-02-25T18:13:36.174Z,1.50
2023-02-25T18:16:40.772Z,1.39
2023-02-25T18:19:19.656Z,1.32
2023-02-25T18:21:48.850Z,1.38
2023-02-25T18:24:24.794Z,1.29
2023-02-25T18:27:18.709Z,1.29
2023-02-25T18:29:49.513Z,1.13
2023-02-25T18:32:18.686Z,0.97
2023-02-25T18:34:48.549Z,0.91
2023-02-25T18:37:20.310Z,0.87
2023-02-25T18:39:51.366Z,0.98
2023-02-25T18:42:20.483Z,0.77
2023-02-25T18:44:51.166Z,0.81
2023-02-25T18:47:20.363Z,0.85
2023-02-25T18:49:49.597Z,0.75
2023-02-25T18:52:23.966Z,0.77
2023-02-25T18:54:53.211Z,0.87
2023-02-25T18:57:26.006Z,0.91
2023-02-25T18:59:56.590Z,0.92
2023-02-25T19:02:29.499Z,0.87
2023-02-25T19:05:00.485Z,0.99
2023-02-25T19:07:31.533Z,1.02
2023-02-25T19:10:00.827Z,0.96
2023-02-25T19:12:32.318Z,1.05
2023-02-25T19:15:06.271Z,0.99
2023-02-25T19:17:35.362Z,1.01
2023-02-25T19:20:05.499Z,0.99
2023-02-25T19:22:34.586Z,0.99
2023-02-25T19:25:04.589Z,0.90
2023-02-25T19:27:33.681Z,0.95
2023-02-25T19:30:05.138Z,0.93
2023-02-25T19:32:34.338Z,0.87
2023-02-25T19:35:04.426Z,0.83
2023-02-25T19:37:37.707Z,0.90
2023-02-25T19:40:10.252Z,0.89
2023-02-25T19:42:39.566Z,0.89
2023-02-25T19:45:12.985Z,0.96
2023-02-25T19:47:42.293Z,0.98
2023-02-25T19:50:12.926Z,1.04
2023-02-25T19:52:42.619Z,1.05
2023-02-25T19:55:14.004Z,1.07
2023-02-25T19:57:43.388Z,1.07
2023-02-25T20:00:17.600Z,1.09
2023-02-25T20:02:46.851Z,1.07
2023-02-25T20:05:16.750Z,0.96
2023-02-25T20:07:45.914Z,1.07
2023-02-25T20:10:16.896Z,1.07
2023-02-25T20:12:48.402Z,0.93
2023-02-25T20:15:19.392Z,0.93
2023-02-25T20:17:49.245Z,0.89
2023-02-25T20:20:18.764Z,0.88
2023-02-25T20:22:48.112Z,0.87
2023-02-25T20:25:17.648Z,0.78
2023-02-25T20:27:47.381Z,0.72
2023-02-25T20:30:19.233Z,0.67
2023-02-25T20:32:48.624Z,0.66
2023-02-25T20:35:20.265Z,0.50
2023-02-25T20:38:09.277Z,0.41
2023-02-25T20:40:38.687Z,0.39
2023-02-25T20:43:11.544Z,0.37
2023-02-25T20:45:42.706Z,0.39
2023-02-25T20:48:26.806Z,0.36
2023-02-25T20:50:56.423Z,0.45
2023-02-25T20:53:25.909Z,0.54
2023-02-25T20:55:57.062Z,0.27
2023-02-25T20:58:26.260Z,-0.03
2023-02-25T21:00:57.324Z,-0.11
2023-02-25T21:03:26.531Z,-0.33
2023-02-25T21:05:55.722Z,-0.38
2023-02-25T21:08:27.351Z,-0.41
2023-02-25T21:10:58.264Z,-0.38
2023-02-25T21:13:27.337Z,-0.40
2023-02-25T21:16:02.109Z,-0.45
2023-02-25T21:18:31.896Z,-0.50
2023-02-25T21:21:02.518Z,-0.52
2023-02-25T21:23:32.635Z,-0.56
2023-02-25T21:26:02.357Z,-0.54
2023-02-25T21:28:32.165Z,-0.59
2023-02-25T21:31:04.971Z,-0.59
2023-02-25T21:33:34.353Z,-0.63
2023-02-25T21:36:04.077Z,-0.64
2023-02-25T21:38:33.267Z,-0.70
2023-02-25T21:41:07.921Z,-0.66
2023-02-25T21:43:37.672Z,-0.65
2023-02-25T21:46:10.892Z,-0.68
2023-02-25T21:48:40.809Z,-0.69
2023-02-25T21:51:16.251Z,-0.68
2023-02-25T21:53:45.708Z,-0.68
2023-02-25T21:56:16.328Z,-0.69
2023-02-25T21:58:45.996Z,-0.71
2023-02-25T22:01:18.775Z,-0.66
2023-02-25T22:03:48.470Z,-0.60
2023-02-25T22:06:18.694Z,-0.67
2023-02-25T22:08:47.918Z,-0.61
2023-02-25T22:11:18.722Z,-0.65
2023-02-25T22:13:48.902Z,-0.60
2023-02-25T22:16:20.129Z,-0.62
2023-02-25T22:18:49.439Z,-0.53
2023-02-25T22:21:20.347Z,-0.54
2023-02-25T22:23:51.065Z,-0.53
2023-02-25T22:26:24.614Z,-0.58
2023-02-25T22:28:56.159Z,-0.50
2023-02-25T22:31:27.563Z,-0.60
2023-02-25T22:33:57.772Z,-0.59
2023-02-25T22:36:27.391Z,-0.66
2023-02-25T22:38:56.815Z,-0.64
2023-02-25T22:41:28.587Z,-0.71
2023-02-25T22:43:59.090Z,-0.67
2023-02-25T22:46:30.916Z,-0.64
2023-02-25T22:49:00.527Z,-0.69
2023-02-25T22:51:32.279Z,-0.68
2023-02-25T22:54:01.579Z,-0.72
2023-02-25T22:56:30.677Z,-0.76
2023-02-25T22:59:04.103Z,-0.77
2023-02-25T23:01:36.174Z,-0.76
2023-02-25T23:04:08.199Z,-0.67
2023-02-25T23:06:44.506Z,-0.69
2023-02-25T23:09:16.267Z,-0.70
2023-02-25T23:11:47.175Z,-0.76
2023-02-25T23:14:17.250Z,-0.85
2023-02-25T23:16:48.994Z,-0.78
2023-02-25T23:19:21.543Z,-0.85
2023-02-25T23:21:50.908Z,-0.89
2023-02-25T23:24:20.065Z,-0.87
2023-02-25T23:26:53.599Z,-0.86
2023-02-25T23:29:22.882Z,-0.95
2023-02-25T23:31:53.377Z,-0.90
2023-02-25T23:34:24.740Z,-0.90
2023-02-25T23:36:57.208Z,-0.95
2023-02-25T23:39:26.850Z,-0.98
2023-02-25T23:41:55.956Z,-1.02
2023-02-25T23:44:25.505Z,-0.99
2023-02-25T23:46:56.303Z,-1.00
2023-02-25T23:49:25.417Z,-1.03
2023-02-25T23:51:54.592Z,-1.02
2023-02-25T23:54:24.397Z,-0.97
2023-02-25T23:56:53.562Z,-0.94
2023-02-25T23:59:24.335Z,-0.99
